createdAt,value
2023-03-20T00:00:37.012Z,2.35
2023-03-20T00:03:22.278Z,2.38
2023-03-20T00:06:19.332Z,2.22
2023-03-20T00:09:06.964Z,2.53
2023-03-20T00:11:55.555Z,2.47
2023-03-20T00:14:41.301Z,2.28
2023-03-20T00:17:26.585Z,2.30
2023-03-20T00:20:16.319Z,2.30
2023-03-20T00:23:02.684Z,2.40
2023-03-20T00:25:47.925Z,2.50
2023-03-20T00:28:42.587Z,2.00
2023-03-20T00:31:33.419Z,2.50
2023-03-20T00:34:23.649Z,2.30
2023-03-20T00:37:11.572Z,2.20
2023-03-20T00:39:56.999Z,2.13
2023-03-20T00:42:44.973Z,2.13
2023-03-20T00:45:33.503Z,2.40
2023-03-20T00:48:18.579Z,2.25
2023-03-20T00:51:03.887Z,2.17
2023-03-20T00:53:50.646Z,2.27
2023-03-20T00:56:42.483Z,1.70
2023-03-20T00:59:38.758Z,1.90
2023-03-20T01:48:19.089Z,1.92
2023-03-20T01:51:06.341Z,2.15
2023-03-20T01:54:01.699Z,2.00
2023-03-20T01:56:57.706Z,1.77
2023-03-20T01:59:49.981Z,1.83
2023-03-20T02:47:06.828Z,1.85
2023-03-20T02:50:18.318Z,1.60
2023-03-20T02:53:26.225Z,2.00
2023-03-20T02:56:31.249Z,1.90
2023-03-20T02:59:26.358Z,1.73
2023-03-20T03:48:09.141Z,1.50
2023-03-20T03:51:00.430Z,1.60
2023-03-20T03:54:09.371Z,1.60
2023-03-20T03:56:56.277Z,1.60
2023-03-20T03:59:46.430Z,1.50
2023-03-20T04:48:14.860Z,1.40
2023-03-20T04:51:00.720Z,1.60
2023-03-20T04:54:01.758Z,1.48
2023-03-20T04:56:47.660Z,1.50
2023-03-20T04:59:35.901Z,1.50
2023-03-20T05:46:34.221Z,1.45
2023-03-20T05:49:46.799Z,1.30
2023-03-20T05:52:41.914Z,1.27
2023-03-20T05:55:48.434Z,1.60
2023-03-20T05:58:53.009Z,1.15
2023-03-20T06:01:56.137Z,1.40
2023-03-20T06:04:45.058Z,1.33
2023-03-20T06:07:44.045Z,1.40
2023-03-20T06:10:33.547Z,1.48
2023-03-20T06:13:19.337Z,1.23
2023-03-20T06:16:06.314Z,1.35
2023-03-20T06:18:51.908Z,3.10
2023-03-20T06:21:37.432Z,4.63
2023-03-20T06:24:25.153Z,5.55
2023-03-20T06:27:10.951Z,6.15
2023-03-20T06:29:57.357Z,6.25
2023-03-20T06:32:49.395Z,5.53
2023-03-20T06:35:36.306Z,4.97
2023-03-20T06:38:21.778Z,4.65
2023-03-20T06:41:09.244Z,3.60
2023-03-20T06:43:55.723Z,3.72
2023-03-20T06:46:44.385Z,3.20
2023-03-20T06:49:29.913Z,3.33
2023-03-20T06:52:21.591Z,3.17
2023-03-20T06:55:22.458Z,2.70
2023-03-20T06:58:07.638Z,2.80
2023-03-20T07:00:57.347Z,2.40
2023-03-20T07:03:43.973Z,2.50
2023-03-20T07:06:29.534Z,2.20
2023-03-20T07:09:14.853Z,1.98
2023-03-20T07:12:01.371Z,2.53
2023-03-20T07:14:51.060Z,2.50
2023-03-20T07:17:38.849Z,2.40
2023-03-20T07:20:24.400Z,2.10
2023-03-20T07:23:09.606Z,2.15
2023-03-20T07:25:55.722Z,2.90
2023-03-20T07:28:41.624Z,2.93
2023-03-20T07:31:37.390Z,3.38
2023-03-20T07:34:45.285Z,3.40
2023-03-20T07:37:31.072Z,3.63
2023-03-20T07:40:23.095Z,3.60
2023-03-20T07:43:13.827Z,3.90
2023-03-20T07:46:23.029Z,3.53
2023-03-20T07:49:08.186Z,4.18
2023-03-20T07:52:00.375Z,3.95
2023-03-20T07:54:45.667Z,4.53
2023-03-20T07:57:33.310Z,4.33
2023-03-20T08:00:19.697Z,4.50
2023-03-20T08:03:06.708Z,4.22
2023-03-20T08:05:52.416Z,4.25
2023-03-20T08:08:37.607Z,4.45
2023-03-20T08:11:23.448Z,4.40
2023-03-20T08:14:09.134Z,4.45
2023-03-20T08:17:12.343Z,4.20
2023-03-20T08:19:58.786Z,3.88
2023-03-20T08:22:45.148Z,3.95
2023-03-20T08:25:33.726Z,3.50
2023-03-20T08:28:19.271Z,3.22
2023-03-20T08:31:08.521Z,3.38
2023-03-20T08:33:55.311Z,3.10
2023-03-20T08:36:40.895Z,2.88
2023-03-20T08:39:26.578Z,2.70
2023-03-20T08:42:11.927Z,2.80
2023-03-20T08:44:57.419Z,2.53
2023-03-20T08:47:42.925Z,2.35
2023-03-20T08:50:28.600Z,2.45
2023-03-20T08:53:14.020Z,2.60
2023-03-20T08:55:59.353Z,2.60
2023-03-20T08:58:44.797Z,2.55
2023-03-20T09:01:45.927Z,2.45
2023-03-20T09:04:33.479Z,2.30
2023-03-20T09:07:18.967Z,2.00
2023-03-20T09:10:05.692Z,2.30
2023-03-20T09:12:51.025Z,2.70
2023-03-20T09:15:36.886Z,2.55
2023-03-20T09:18:23.117Z,2.40
2023-03-20T09:21:08.671Z,2.10
2023-03-20T09:23:54.803Z,2.50
2023-03-20T09:26:40.116Z,3.25
2023-03-20T09:29:25.539Z,3.33
2023-03-20T09:32:15.569Z,3.20
2023-03-20T09:35:01.740Z,3.13
2023-03-20T09:37:49.714Z,2.90
2023-03-20T09:41:01.530Z,2.65
2023-03-20T09:43:59.833Z,2.60
2023-03-20T09:47:20.583Z,2.85
2023-03-20T09:50:46.492Z,2.70
2023-03-20T09:53:39.103Z,3.00
2023-03-20T09:56:27.322Z,3.08
2023-03-20T09:59:16.133Z,2.60
2023-03-20T10:02:14.842Z,2.65
2023-03-20T10:05:00.495Z,2.57
2023-03-20T10:07:46.940Z,2.58
2023-03-20T10:10:48.133Z,2.60
2023-03-20T10:13:49.129Z,2.53
2023-03-20T10:17:02.136Z,2.58
2023-03-20T10:20:02.236Z,2.23
2023-03-20T10:22:53.493Z,2.28
2023-03-20T10:25:47.714Z,2.40
2023-03-20T10:28:40.714Z,2.10
2023-03-20T10:31:47.972Z,2.35
2023-03-20T10:34:57.388Z,2.27
2023-03-20T10:37:49.054Z,2.33
2023-03-20T10:40:38.561Z,2.20
2023-03-20T10:43:32.976Z,2.20
2023-03-20T10:46:35.644Z,2.30
2023-03-20T10:49:52.041Z,2.40
2023-03-20T10:52:41.735Z,2.45
2023-03-20T10:55:40.890Z,2.15
2023-03-20T10:58:29.842Z,2.30
2023-03-20T11:01:15.150Z,2.47
2023-03-20T11:04:00.957Z,2.43
2023-03-20T11:07:23.413Z,2.50
2023-03-20T11:10:13.418Z,2.15
2023-03-20T11:13:14.758Z,1.95
2023-03-20T11:16:25.219Z,2.00
2023-03-20T11:19:12.287Z,2.00
2023-03-20T11:22:02.168Z,2.20
2023-03-20T11:24:51.619Z,2.10
2023-03-20T11:27:36.897Z,1.92
2023-03-20T11:30:22.709Z,2.03
2023-03-20T11:33:09.125Z,1.77
2023-03-20T11:35:56.665Z,2.35
2023-03-20T11:38:46.392Z,1.90
2023-03-20T11:41:31.994Z,1.98
2023-03-20T11:44:29.436Z,2.60
2023-03-20T11:47:22.601Z,2.20
2023-03-20T11:50:29.975Z,2.20
2023-03-20T11:53:41.493Z,2.22
2023-03-20T11:56:29.727Z,2.38
2023-03-20T11:59:19.357Z,2.30
2023-03-20T12:02:20.897Z,1.97
2023-03-20T12:05:29.034Z,2.53
2023-03-20T12:08:25.497Z,2.28
2023-03-20T12:11:38.239Z,2.00
2023-03-20T12:14:41.525Z,2.00
2023-03-20T12:17:33.489Z,2.07
2023-03-20T12:20:32.957Z,1.98
2023-03-20T12:23:44.522Z,2.10
2023-03-20T12:26:44.999Z,1.75
2023-03-20T12:29:43.334Z,2.05
2023-03-20T12:32:32.139Z,1.83
2023-03-20T12:35:34.320Z,2.03
2023-03-20T12:38:32.318Z,2.17
2023-03-20T12:41:35.372Z,1.98
2023-03-20T12:44:46.042Z,1.90
2023-03-20T12:47:52.931Z,2.00
2023-03-20T12:50:45.514Z,1.98
2023-03-20T12:53:43.008Z,2.15
2023-03-20T12:56:40.918Z,1.85
2023-03-20T12:59:34.254Z,1.95
2023-03-20T13:02:48.145Z,1.80
2023-03-20T13:05:37.644Z,1.80
2023-03-20T13:08:54.913Z,2.15
2023-03-20T13:12:01.338Z,1.95
2023-03-20T13:15:06.095Z,2.03
2023-03-20T13:18:12.661Z,1.90
2023-03-20T13:21:04.016Z,2.10
2023-03-20T13:24:13.108Z,3.03
2023-03-20T13:27:34.279Z,2.80
2023-03-20T13:30:33.793Z,2.63
2023-03-20T13:33:31.556Z,2.30
2023-03-20T13:36:44.486Z,2.00
2023-03-20T13:39:39.081Z,2.20
2023-03-20T13:42:31.013Z,2.00
2023-03-20T13:45:42.549Z,2.22
2023-03-20T13:48:44.960Z,1.70
2023-03-20T13:51:48.869Z,1.83
2023-03-20T13:54:53.499Z,2.08
2023-03-20T13:58:14.161Z,2.00
2023-03-20T14:01:32.479Z,2.00
2023-03-20T14:04:21.818Z,2.00
2023-03-20T14:07:27.943Z,1.95
2023-03-20T14:10:23.238Z,2.40
2023-03-20T14:13:19.358Z,1.73
2023-03-20T14:16:09.591Z,2.20
2023-03-20T14:19:17.461Z,1.60
2023-03-20T14:22:02.997Z,2.00
2023-03-20T14:25:00.775Z,2.33
2023-03-20T14:28:06.655Z,2.33
2023-03-20T14:31:12.349Z,2.00
2023-03-20T14:34:00.670Z,1.90
2023-03-20T14:37:00.599Z,2.10
2023-03-20T14:39:58.204Z,1.90
2023-03-20T14:42:49.292Z,1.80
2023-03-20T14:45:44.821Z,1.92
2023-03-20T14:48:44.285Z,2.10
2023-03-20T14:51:46.047Z,2.17
2023-03-20T14:54:31.990Z,1.88
2023-03-20T14:57:29.410Z,1.70
2023-03-20T15:00:23.745Z,1.95
2023-03-20T15:03:12.249Z,1.70
2023-03-20T15:06:04.603Z,1.63
2023-03-20T15:09:05.275Z,1.90
2023-03-20T15:11:52.701Z,1.90
2023-03-20T15:14:47.417Z,2.00
2023-03-20T15:17:40.620Z,1.80
2023-03-20T15:20:29.471Z,1.90
2023-03-20T15:23:15.599Z,1.48
2023-03-20T15:26:01.056Z,1.73
2023-03-20T15:28:47.119Z,1.50
2023-03-20T15:31:35.784Z,1.60
2023-03-20T15:34:24.018Z,1.58
2023-03-20T15:37:14.350Z,1.63
2023-03-20T15:40:12.467Z,1.85
2023-03-20T15:43:07.294Z,1.77
2023-03-20T15:46:16.230Z,1.87
2023-03-20T15:49:02.529Z,2.10
2023-03-20T15:51:49.055Z,2.50
2023-03-20T15:54:37.439Z,2.20
2023-03-20T15:57:44.959Z,2.00
2023-03-20T16:00:33.123Z,1.93
2023-03-20T16:03:21.889Z,1.90
2023-03-20T16:06:11.219Z,2.20
2023-03-20T16:09:07.224Z,2.13
2023-03-20T16:11:59.455Z,2.13
2023-03-20T16:14:47.589Z,1.90
2023-03-20T16:17:36.153Z,1.70
2023-03-20T16:20:23.908Z,1.95
2023-03-20T16:23:10.048Z,1.60
2023-03-20T16:26:01.153Z,1.80
2023-03-20T16:28:49.377Z,1.80
2023-03-20T16:31:36.634Z,1.63
2023-03-20T16:34:25.898Z,1.83
2023-03-20T16:37:36.427Z,1.70
2023-03-20T16:40:28.548Z,2.00
2023-03-20T16:43:16.840Z,1.83
2023-03-20T16:46:06.643Z,1.70
2023-03-20T16:48:57.065Z,2.00
2023-03-20T16:51:44.519Z,1.83
2023-03-20T16:54:34.562Z,1.80
2023-03-20T16:57:19.991Z,1.70
2023-03-20T17:00:48.506Z,1.75
2023-03-20T17:03:57.857Z,1.80
2023-03-20T17:06:48.756Z,1.65
2023-03-20T17:09:34.061Z,3.20
2023-03-20T17:12:19.804Z,3.50
2023-03-20T17:15:06.719Z,3.13
2023-03-20T17:17:52.823Z,2.97
2023-03-20T17:20:39.358Z,2.70
2023-03-20T17:23:25.792Z,2.35
2023-03-20T17:26:13.210Z,2.60
2023-03-20T17:28:59.943Z,2.28
2023-03-20T17:31:46.335Z,1.92
2023-03-20T17:34:32.601Z,2.20
2023-03-20T17:37:29.822Z,2.10
2023-03-20T17:40:22.578Z,2.20
2023-03-20T17:43:14.294Z,2.40
2023-03-20T17:46:00.185Z,1.95
2023-03-20T17:48:48.167Z,1.95
2023-03-20T17:51:35.311Z,2.40
2023-03-20T17:54:20.755Z,2.90
2023-03-20T17:57:11.558Z,2.30
2023-03-20T17:59:57.292Z,2.20
2023-03-20T18:02:42.896Z,2.00
2023-03-20T18:05:28.737Z,2.00
2023-03-20T18:08:16.787Z,2.50
2023-03-20T18:11:03.715Z,2.00
2023-03-20T18:13:52.057Z,2.42
2023-03-20T18:16:37.332Z,2.13
2023-03-20T18:19:29.071Z,2.45
2023-03-20T18:22:14.234Z,2.30
2023-03-20T18:24:59.493Z,2.00
2023-03-20T18:27:44.712Z,2.10
2023-03-20T18:30:35.002Z,2.20
2023-03-20T18:33:25.285Z,2.10
2023-03-20T18:36:15.344Z,1.60
2023-03-20T18:39:01.387Z,1.80
2023-03-20T18:41:48.897Z,1.75
2023-03-20T18:44:33.913Z,1.80
2023-03-20T18:47:19.235Z,1.90
2023-03-20T18:50:04.871Z,1.80
2023-03-20T18:52:51.845Z,1.70
2023-03-20T18:55:40.242Z,2.20
2023-03-20T18:58:28.896Z,2.38
2023-03-20T19:01:16.004Z,2.05
2023-03-20T19:04:02.057Z,2.30
2023-03-20T19:06:48.661Z,2.25
2023-03-20T19:09:34.102Z,2.08
2023-03-20T19:12:19.408Z,2.40
2023-03-20T19:15:04.941Z,2.22
2023-03-20T19:17:50.972Z,2.10
2023-03-20T19:20:39.153Z,2.20
2023-03-20T19:23:26.095Z,2.20
2023-03-20T19:26:17.460Z,2.05
2023-03-20T19:29:10.080Z,2.20
2023-03-20T19:31:55.386Z,2.17
2023-03-20T19:35:29.804Z,2.60
2023-03-20T19:37:46.303Z,2.00
2023-03-20T19:40:44.568Z,2.40
2023-03-20T19:43:31.096Z,2.40
2023-03-20T19:46:32.236Z,2.50
2023-03-20T19:49:30.474Z,2.50
2023-03-20T19:52:30.488Z,2.50
2023-03-20T19:55:16.388Z,2.13
2023-03-20T19:58:02.358Z,2.45
2023-03-20T20:00:57.802Z,2.53
2023-03-20T20:03:44.921Z,2.63
2023-03-20T20:06:32.583Z,2.58
2023-03-20T20:09:22.447Z,2.38
2023-03-20T20:12:07.883Z,2.60
2023-03-20T20:14:53.396Z,2.50
2023-03-20T20:17:38.593Z,2.53
2023-03-20T20:20:25.180Z,2.88
2023-03-20T20:23:14.251Z,2.10
2023-03-20T20:25:59.637Z,2.95
2023-03-20T20:28:45.203Z,2.70
2023-03-20T20:31:31.598Z,2.80
2023-03-20T20:40:29.541Z,7.30
2023-03-20T20:43:38.843Z,6.30
2023-03-20T20:46:20.093Z,5.68
2023-03-20T20:49:18.492Z,4.32
2023-03-20T20:52:05.268Z,4.13
2023-03-20T20:54:50.608Z,4.10
2023-03-20T20:57:36.316Z,3.97
2023-03-20T21:00:27.361Z,4.22
2023-03-20T21:03:17.407Z,4.07
2023-03-20T21:06:06.467Z,3.70
2023-03-20T21:08:51.764Z,3.70
2023-03-20T21:11:37.221Z,3.70
2023-03-20T21:14:22.605Z,3.67
2023-03-20T21:17:10.096Z,3.78
2023-03-20T21:19:56.680Z,3.58
2023-03-20T21:22:42.222Z,3.80
2023-03-20T21:25:39.612Z,3.80
2023-03-20T21:28:26.534Z,3.67
2023-03-20T21:31:25.911Z,3.65
2023-03-20T21:34:14.100Z,3.45
2023-03-20T21:37:00.459Z,3.28
2023-03-20T21:39:51.656Z,3.63
2023-03-20T21:42:37.715Z,3.55
2023-03-20T21:46:15.260Z,3.50
2023-03-20T21:55:37.037Z,3.63
2023-03-20T22:01:48.783Z,3.60
2023-03-20T22:07:51.984Z,3.53
2023-03-20T22:14:17.518Z,3.20
2023-03-20T22:23:30.801Z,3.47
2023-03-20T22:26:30.979Z,3.00
2023-03-20T22:32:35.191Z,3.40
2023-03-20T22:38:41.925Z,3.30
2023-03-20T22:41:59.195Z,3.10
2023-03-20T22:47:20.773Z,3.22
2023-03-20T22:50:07.001Z,3.25
2023-03-20T22:52:55.567Z,3.10
2023-03-20T22:55:48.557Z,3.10
2023-03-20T22:58:33.965Z,3.40
2023-03-20T23:01:19.305Z,3.35
2023-03-20T23:04:04.631Z,3.20
2023-03-20T23:06:49.936Z,3.20
2023-03-20T23:09:35.587Z,3.10
2023-03-20T23:12:22.399Z,3.17
2023-03-20T23:15:08.653Z,3.42
2023-03-20T23:17:54.204Z,3.05
2023-03-20T23:20:40.207Z,3.22
2023-03-20T23:23:27.584Z,3.10
2023-03-20T23:26:19.826Z,2.75
2023-03-20T23:29:05.713Z,3.10
2023-03-20T23:31:51.093Z,3.22
2023-03-20T23:34:37.229Z,3.08
2023-03-20T23:37:23.466Z,2.90
2023-03-20T23:40:09.643Z,3.00
2023-03-20T23:42:55.049Z,3.17
2023-03-20T23:45:40.756Z,3.00
2023-03-20T23:48:26.070Z,3.60
2023-03-20T23:51:11.522Z,3.17
2023-03-20T23:53:56.945Z,3.45
2023-03-20T23:56:42.321Z,3.13
2023-03-20T23:59:29.572Z,2.88
